Terminal Aerodrome Forecast
Issued by NWS Cleveland, OH

Home | Current Version | Previous Version | Graphics & Text | Print | Product List | Glossary On
Versions: 1 2 3 4 5 6 7 8 9 10 11 12 13 14
675
FTUS41 KCLE 142342
TAFYNG
TAF
KYNG 142342Z 1500/1524 VRB03KT P6SM BKN035
     FM150200 12004KT P6SM FEW035 SCT200
     FM151400 15008KT P6SM BKN200
     FM152000 18010KT P6SM BKN120 OVC200
     FM152200 18010KT P6SM VCSH SCT035 OVC050=

USA.gov is the U.S. government's official web portal to all federal, state and local government web resources and services.